sensor_id;sensor_type;location;lat;lon;timestamp;P1;durP1;ratioP1;P2;durP2;ratioP2
70367;SDS011;57789;53.868;10.728;2022-08-04T00:01:31;6.57;;;3.83;;
70367;SDS011;57789;53.868;10.728;2022-08-04T00:04:01;21.73;;;11.27;;
70367;SDS011;57789;53.868;10.728;2022-08-04T00:09:15;18.20;;;9.70;;
70367;SDS011;57789;53.868;10.728;2022-08-04T00:11:45;11.67;;;7.40;;
70367;SDS011;57789;53.868;10.728;2022-08-04T00:14:14;16.90;;;8.63;;
70367;SDS011;57789;53.868;10.728;2022-08-04T00:16:40;11.50;;;6.17;;
70367;SDS011;57789;53.868;10.728;2022-08-04T00:19:16;12.90;;;6.60;;
70367;SDS011;57789;53.868;10.728;2022-08-04T00:21:55;14.07;;;6.10;;
70367;SDS011;57789;53.868;10.728;2022-08-04T00:24:28;9.30;;;5.10;;
70367;SDS011;57789;53.868;10.728;2022-08-04T00:26:55;15.23;;;4.30;;
70367;SDS011;57789;53.868;10.728;2022-08-04T00:29:21;7.17;;;3.20;;
70367;SDS011;57789;53.868;10.728;2022-08-04T00:31:48;10.80;;;3.50;;
70367;SDS011;57789;53.868;10.728;2022-08-04T00:34:14;12.63;;;3.30;;
70367;SDS011;57789;53.868;10.728;2022-08-04T00:36:43;9.97;;;3.03;;
70367;SDS011;57789;53.868;10.728;2022-08-04T00:39:12;6.07;;;3.03;;
70367;SDS011;57789;53.868;10.728;2022-08-04T00:52:32;9.60;;;4.17;;
70367;SDS011;57789;53.868;10.728;2022-08-04T00:57:42;13.20;;;4.10;;
70367;SDS011;57789;53.868;10.728;2022-08-04T01:00:53;6.93;;;3.80;;
70367;SDS011;57789;53.868;10.728;2022-08-04T01:03:48;14.93;;;4.20;;
70367;SDS011;57789;53.868;10.728;2022-08-04T01:09:14;12.47;;;3.10;;
70367;SDS011;57789;53.868;10.728;2022-08-04T01:17:18;4.10;;;3.53;;
70367;SDS011;57789;53.868;10.728;2022-08-04T01:30:48;12.70;;;3.63;;
70367;SDS011;57789;53.868;10.728;2022-08-04T01:33:19;10.93;;;3.37;;
70367;SDS011;57789;53.868;10.728;2022-08-04T01:38:22;94.40;;;63.30;;
70367;SDS011;57789;53.868;10.728;2022-08-04T01:41:04;74.20;;;49.00;;
70367;SDS011;57789;53.868;10.728;2022-08-04T01:43:31;88.30;;;56.23;;
70367;SDS011;57789;53.868;10.728;2022-08-04T01:45:59;61.50;;;41.53;;
70367;SDS011;57789;53.868;10.728;2022-08-04T01:48:27;31.50;;;22.50;;
70367;SDS011;57789;53.868;10.728;2022-08-04T01:50:58;18.07;;;12.03;;
70367;SDS011;57789;53.868;10.728;2022-08-04T01:53:29;13.97;;;8.27;;
70367;SDS011;57789;53.868;10.728;2022-08-04T01:55:56;11.73;;;5.20;;
70367;SDS011;57789;53.868;10.728;2022-08-04T01:58:23;8.67;;;4.70;;
70367;SDS011;57789;53.868;10.728;2022-08-04T02:03:23;14.00;;;4.00;;
70367;SDS011;57789;53.868;10.728;2022-08-04T02:05:49;7.40;;;3.20;;
70367;SDS011;57789;53.868;10.728;2022-08-04T02:10:48;5.73;;;3.37;;
70367;SDS011;57789;53.868;10.728;2022-08-04T02:13:22;6.20;;;3.03;;
70367;SDS011;57789;53.868;10.728;2022-08-04T02:15:57;7.27;;;3.47;;
70367;SDS011;57789;53.868;10.728;2022-08-04T02:21:05;7.60;;;3.13;;
70367;SDS011;57789;53.868;10.728;2022-08-04T02:26:03;9.17;;;4.00;;
70367;SDS011;57789;53.868;10.728;2022-08-04T02:28:38;7.90;;;3.00;;
70367;SDS011;57789;53.868;10.728;2022-08-04T02:33:50;6.93;;;2.90;;
70367;SDS011;57789;53.868;10.728;2022-08-04T02:36:39;13.70;;;3.20;;
70367;SDS011;57789;53.868;10.728;2022-08-04T02:39:07;9.93;;;3.20;;
70367;SDS011;57789;53.868;10.728;2022-08-04T02:41:37;5.63;;;3.20;;
70367;SDS011;57789;53.868;10.728;2022-08-04T02:44:05;7.83;;;2.70;;
70367;SDS011;57789;53.868;10.728;2022-08-04T02:46:33;8.77;;;4.17;;
70367;SDS011;57789;53.868;10.728;2022-08-04T02:49:03;11.83;;;2.50;;
70367;SDS011;57789;53.868;10.728;2022-08-04T02:51:40;7.20;;;3.23;;
70367;SDS011;57789;53.868;10.728;2022-08-04T02:54:07;8.00;;;3.70;;
70367;SDS011;57789;53.868;10.728;2022-08-04T02:56:34;10.73;;;3.77;;
70367;SDS011;57789;53.868;10.728;2022-08-04T02:59:02;5.67;;;3.30;;
70367;SDS011;57789;53.868;10.728;2022-08-04T03:01:30;9.30;;;3.17;;
70367;SDS011;57789;53.868;10.728;2022-08-04T03:04:20;9.20;;;3.40;;
70367;SDS011;57789;53.868;10.728;2022-08-04T03:15:19;8.90;;;3.30;;
70367;SDS011;57789;53.868;10.728;2022-08-04T03:42:56;6.10;;;3.17;;
70367;SDS011;57789;53.868;10.728;2022-08-04T03:53:59;9.10;;;3.33;;
70367;SDS011;57789;53.868;10.728;2022-08-04T04:00:12;9.33;;;4.20;;
70367;SDS011;57789;53.868;10.728;2022-08-04T04:21:57;7.10;;;3.43;;
70367;SDS011;57789;53.868;10.728;2022-08-04T04:25:21;9.30;;;2.83;;
70367;SDS011;57789;53.868;10.728;2022-08-04T04:30:22;10.00;;;3.67;;
70367;SDS011;57789;53.868;10.728;2022-08-04T04:49:33;10.40;;;4.20;;
70367;SDS011;57789;53.868;10.728;2022-08-04T04:57:19;12.50;;;5.50;;
70367;SDS011;57789;53.868;10.728;2022-08-04T04:59:51;9.13;;;4.37;;
70367;SDS011;57789;53.868;10.728;2022-08-04T05:13:52;11.53;;;5.07;;
70367;SDS011;57789;53.868;10.728;2022-08-04T05:16:33;10.17;;;3.97;;
70367;SDS011;57789;53.868;10.728;2022-08-04T05:22:10;8.67;;;4.60;;
70367;SDS011;57789;53.868;10.728;2022-08-04T05:24:43;7.57;;;4.07;;
70367;SDS011;57789;53.868;10.728;2022-08-04T05:27:19;13.77;;;5.13;;
70367;SDS011;57789;53.868;10.728;2022-08-04T05:29:51;14.67;;;4.13;;
70367;SDS011;57789;53.868;10.728;2022-08-04T05:32:25;4.70;;;3.10;;
70367;SDS011;57789;53.868;10.728;2022-08-04T05:34:57;8.00;;;4.17;;
70367;SDS011;57789;53.868;10.728;2022-08-04T05:37:27;10.63;;;5.00;;
70367;SDS011;57789;53.868;10.728;2022-08-04T05:39:56;6.33;;;3.50;;
70367;SDS011;57789;53.868;10.728;2022-08-04T05:42:25;11.90;;;4.33;;
70367;SDS011;57789;53.868;10.728;2022-08-04T05:44:52;6.13;;;3.43;;
70367;SDS011;57789;53.868;10.728;2022-08-04T05:47:19;6.33;;;3.67;;
70367;SDS011;57789;53.868;10.728;2022-08-04T05:49:46;8.53;;;3.90;;
70367;SDS011;57789;53.868;10.728;2022-08-04T05:52:12;9.60;;;4.00;;
70367;SDS011;57789;53.868;10.728;2022-08-04T05:54:39;12.87;;;3.73;;
70367;SDS011;57789;53.868;10.728;2022-08-04T05:57:06;10.37;;;4.13;;
70367;SDS011;57789;53.868;10.728;2022-08-04T05:59:35;12.97;;;3.80;;
70367;SDS011;57789;53.868;10.728;2022-08-04T06:02:03;10.57;;;4.40;;
70367;SDS011;57789;53.868;10.728;2022-08-04T06:04:30;18.10;;;3.97;;
70367;SDS011;57789;53.868;10.728;2022-08-04T06:07:07;8.03;;;4.17;;
70367;SDS011;57789;53.868;10.728;2022-08-04T06:09:35;8.20;;;3.07;;
70367;SDS011;57789;53.868;10.728;2022-08-04T06:12:13;6.73;;;3.33;;
70367;SDS011;57789;53.868;10.728;2022-08-04T06:14:44;9.63;;;3.83;;
70367;SDS011;57789;53.868;10.728;2022-08-04T06:17:23;8.33;;;3.73;;
70367;SDS011;57789;53.868;10.728;2022-08-04T06:19:55;7.67;;;3.30;;
70367;SDS011;57789;53.868;10.728;2022-08-04T06:22:22;5.10;;;2.67;;
70367;SDS011;57789;53.868;10.728;2022-08-04T06:24:48;9.33;;;3.53;;
70367;SDS011;57789;53.868;10.728;2022-08-04T06:27:16;12.33;;;3.60;;
70367;SDS011;57789;53.868;10.728;2022-08-04T06:29:43;12.00;;;3.30;;
70367;SDS011;57789;53.868;10.728;2022-08-04T06:32:12;15.83;;;3.30;;
70367;SDS011;57789;53.868;10.728;2022-08-04T06:34:53;5.30;;;2.20;;
70367;SDS011;57789;53.868;10.728;2022-08-04T06:37:21;11.67;;;3.30;;
70367;SDS011;57789;53.868;10.728;2022-08-04T06:39:48;13.83;;;3.70;;
70367;SDS011;57789;53.868;10.728;2022-08-04T06:42:16;7.40;;;3.53;;
70367;SDS011;57789;53.868;10.728;2022-08-04T06:44:50;4.50;;;2.13;;
70367;SDS011;57789;53.868;10.728;2022-08-04T06:47:18;9.33;;;3.07;;
70367;SDS011;57789;53.868;10.728;2022-08-04T06:49:46;9.63;;;2.83;;
70367;SDS011;57789;53.868;10.728;2022-08-04T06:52:15;8.60;;;2.50;;
70367;SDS011;57789;53.868;10.728;2022-08-04T06:54:43;8.60;;;4.80;;
70367;SDS011;57789;53.868;10.728;2022-08-04T06:57:10;6.53;;;2.30;;
70367;SDS011;57789;53.868;10.728;2022-08-04T06:59:40;5.90;;;3.20;;
70367;SDS011;57789;53.868;10.728;2022-08-04T07:02:12;14.40;;;2.80;;
70367;SDS011;57789;53.868;10.728;2022-08-04T07:04:40;6.23;;;2.70;;
70367;SDS011;57789;53.868;10.728;2022-08-04T07:07:09;6.53;;;2.43;;
70367;SDS011;57789;53.868;10.728;2022-08-04T07:09:36;6.77;;;2.37;;
70367;SDS011;57789;53.868;10.728;2022-08-04T07:12:03;5.27;;;1.80;;
70367;SDS011;57789;53.868;10.728;2022-08-04T07:14:30;9.03;;;3.00;;
70367;SDS011;57789;53.868;10.728;2022-08-04T07:17:00;9.07;;;2.13;;
70367;SDS011;57789;53.868;10.728;2022-08-04T07:19:31;6.80;;;2.27;;
70367;SDS011;57789;53.868;10.728;2022-08-04T07:22:07;4.13;;;2.30;;
70367;SDS011;57789;53.868;10.728;2022-08-04T07:24:34;9.33;;;2.40;;
70367;SDS011;57789;53.868;10.728;2022-08-04T07:27:01;6.73;;;2.83;;
70367;SDS011;57789;53.868;10.728;2022-08-04T07:29:28;6.80;;;2.77;;
70367;SDS011;57789;53.868;10.728;2022-08-04T07:31:54;9.90;;;2.67;;
70367;SDS011;57789;53.868;10.728;2022-08-04T07:34:21;7.33;;;2.97;;
70367;SDS011;57789;53.868;10.728;2022-08-04T07:36:50;6.77;;;2.57;;
70367;SDS011;57789;53.868;10.728;2022-08-04T07:39:17;14.33;;;2.83;;
70367;SDS011;57789;53.868;10.728;2022-08-04T07:41:45;10.83;;;2.10;;
70367;SDS011;57789;53.868;10.728;2022-08-04T07:44:12;10.10;;;2.37;;
70367;SDS011;57789;53.868;10.728;2022-08-04T07:46:39;14.70;;;2.30;;
70367;SDS011;57789;53.868;10.728;2022-08-04T07:49:06;6.60;;;1.90;;
70367;SDS011;57789;53.868;10.728;2022-08-04T07:51:33;4.87;;;1.90;;
70367;SDS011;57789;53.868;10.728;2022-08-04T07:54:00;9.47;;;2.57;;
70367;SDS011;57789;53.868;10.728;2022-08-04T07:56:32;11.00;;;2.50;;
70367;SDS011;57789;53.868;10.728;2022-08-04T07:59:00;16.20;;;2.13;;
70367;SDS011;57789;53.868;10.728;2022-08-04T08:01:27;5.90;;;2.30;;
70367;SDS011;57789;53.868;10.728;2022-08-04T08:03:54;6.63;;;2.20;;
70367;SDS011;57789;53.868;10.728;2022-08-04T08:06:21;4.30;;;1.83;;
70367;SDS011;57789;53.868;10.728;2022-08-04T08:08:48;5.97;;;2.17;;
70367;SDS011;57789;53.868;10.728;2022-08-04T08:11:14;7.90;;;2.40;;
70367;SDS011;57789;53.868;10.728;2022-08-04T08:13:41;8.37;;;1.80;;
70367;SDS011;57789;53.868;10.728;2022-08-04T08:16:08;7.90;;;2.43;;
70367;SDS011;57789;53.868;10.728;2022-08-04T08:18:35;4.73;;;2.37;;
70367;SDS011;57789;53.868;10.728;2022-08-04T08:21:00;12.30;;;2.40;;
70367;SDS011;57789;53.868;10.728;2022-08-04T08:23:27;5.10;;;1.90;;
70367;SDS011;57789;53.868;10.728;2022-08-04T08:25:56;6.63;;;2.03;;
70367;SDS011;57789;53.868;10.728;2022-08-04T08:28:23;3.90;;;1.80;;
70367;SDS011;57789;53.868;10.728;2022-08-04T08:30:48;6.63;;;2.60;;
70367;SDS011;57789;53.868;10.728;2022-08-04T08:33:14;16.67;;;3.07;;
70367;SDS011;57789;53.868;10.728;2022-08-04T08:38:16;11.33;;;2.80;;
70367;SDS011;57789;53.868;10.728;2022-08-04T08:40:47;17.43;;;2.87;;
70367;SDS011;57789;53.868;10.728;2022-08-04T09:11:07;3.90;;;2.03;;
70367;SDS011;57789;53.868;10.728;2022-08-04T09:16:11;11.33;;;1.97;;
70367;SDS011;57789;53.868;10.728;2022-08-04T09:21:40;6.20;;;1.80;;
70367;SDS011;57789;53.868;10.728;2022-08-04T09:24:21;8.63;;;2.90;;
70367;SDS011;57789;53.868;10.728;2022-08-04T09:26:54;6.03;;;2.50;;
70367;SDS011;57789;53.868;10.728;2022-08-04T09:29:35;7.00;;;2.00;;
70367;SDS011;57789;53.868;10.728;2022-08-04T09:40:48;1.77;;;1.40;;
70367;SDS011;57789;53.868;10.728;2022-08-04T09:43:32;8.23;;;2.57;;
70367;SDS011;57789;53.868;10.728;2022-08-04T09:49:11;6.33;;;1.97;;
70367;SDS011;57789;53.868;10.728;2022-08-04T09:54:21;5.33;;;2.10;;
70367;SDS011;57789;53.868;10.728;2022-08-04T09:57:10;2.37;;;1.63;;
70367;SDS011;57789;53.868;10.728;2022-08-04T09:59:40;5.93;;;1.70;;
70367;SDS011;57789;53.868;10.728;2022-08-04T10:02:14;3.00;;;1.67;;
70367;SDS011;57789;53.868;10.728;2022-08-04T10:04:43;7.57;;;1.90;;
70367;SDS011;57789;53.868;10.728;2022-08-04T10:10:11;7.27;;;1.80;;
70367;SDS011;57789;53.868;10.728;2022-08-04T10:26:44;4.57;;;2.33;;
70367;SDS011;57789;53.868;10.728;2022-08-04T10:32:13;3.83;;;1.80;;
70367;SDS011;57789;53.868;10.728;2022-08-04T10:35:13;4.90;;;1.80;;
70367;SDS011;57789;53.868;10.728;2022-08-04T10:40:41;3.80;;;2.60;;
70367;SDS011;57789;53.868;10.728;2022-08-04T10:46:04;6.30;;;2.90;;
70367;SDS011;57789;53.868;10.728;2022-08-04T10:54:01;4.07;;;2.43;;
70367;SDS011;57789;53.868;10.728;2022-08-04T10:56:32;2.97;;;2.00;;
70367;SDS011;57789;53.868;10.728;2022-08-04T10:59:08;14.73;;;2.60;;
70367;SDS011;57789;53.868;10.728;2022-08-04T11:01:41;6.77;;;2.33;;
70367;SDS011;57789;53.868;10.728;2022-08-04T11:04:45;2.13;;;1.77;;
70367;SDS011;57789;53.868;10.728;2022-08-04T11:07:07;5.37;;;2.10;;
70367;SDS011;57789;53.868;10.728;2022-08-04T11:09:33;3.87;;;1.80;;
70367;SDS011;57789;53.868;10.728;2022-08-04T11:12:02;2.40;;;2.10;;
70367;SDS011;57789;53.868;10.728;2022-08-04T11:14:45;1.83;;;1.57;;
70367;SDS011;57789;53.868;10.728;2022-08-04T11:17:34;5.05;;;2.20;;
70367;SDS011;57789;53.868;10.728;2022-08-04T11:22:38;2.63;;;2.42;;
70367;SDS011;57789;53.868;10.728;2022-08-04T11:25:18;4.57;;;2.38;;
70367;SDS011;57789;53.868;10.728;2022-08-04T11:27:54;4.18;;;1.80;;
70367;SDS011;57789;53.868;10.728;2022-08-04T11:30:29;4.20;;;1.70;;
70367;SDS011;57789;53.868;10.728;2022-08-04T11:33:30;5.90;;;2.40;;
70367;SDS011;57789;53.868;10.728;2022-08-04T11:39:34;2.47;;;1.98;;
70367;SDS011;57789;53.868;10.728;2022-08-04T11:44:48;3.20;;;1.85;;
70367;SDS011;57789;53.868;10.728;2022-08-04T11:50:03;3.58;;;1.50;;
70367;SDS011;57789;53.868;10.728;2022-08-04T11:52:30;10.77;;;2.00;;
70367;SDS011;57789;53.868;10.728;2022-08-04T11:54:58;3.80;;;1.67;;
70367;SDS011;57789;53.868;10.728;2022-08-04T11:57:28;4.43;;;2.05;;
70367;SDS011;57789;53.868;10.728;2022-08-04T11:59:54;3.85;;;2.63;;
70367;SDS011;57789;53.868;10.728;2022-08-04T12:05:06;5.38;;;2.80;;
70367;SDS011;57789;53.868;10.728;2022-08-04T12:11:39;2.75;;;2.00;;
70367;SDS011;57789;53.868;10.728;2022-08-04T12:16:44;1.90;;;1.67;;
70367;SDS011;57789;53.868;10.728;2022-08-04T12:19:40;3.92;;;1.42;;
70367;SDS011;57789;53.868;10.728;2022-08-04T12:22:23;7.05;;;2.35;;
70367;SDS011;57789;53.868;10.728;2022-08-04T12:27:26;5.60;;;1.70;;
70367;SDS011;57789;53.868;10.728;2022-08-04T12:29:57;2.10;;;1.90;;
70367;SDS011;57789;53.868;10.728;2022-08-04T12:36:18;3.97;;;1.70;;
70367;SDS011;57789;53.868;10.728;2022-08-04T12:38:26;4.75;;;2.10;;
70367;SDS011;57789;53.868;10.728;2022-08-04T12:40:56;2.30;;;2.10;;
70367;SDS011;57789;53.868;10.728;2022-08-04T12:43:37;4.10;;;2.42;;
70367;SDS011;57789;53.868;10.728;2022-08-04T12:46:09;5.93;;;2.22;;
70367;SDS011;57789;53.868;10.728;2022-08-04T12:48:37;2.63;;;1.63;;
70367;SDS011;57789;53.868;10.728;2022-08-04T12:51:08;1.77;;;1.65;;
70367;SDS011;57789;53.868;10.728;2022-08-04T12:53:36;8.52;;;1.80;;
70367;SDS011;57789;53.868;10.728;2022-08-04T12:56:10;8.27;;;1.80;;
70367;SDS011;57789;53.868;10.728;2022-08-04T12:58:46;3.33;;;1.42;;
70367;SDS011;57789;53.868;10.728;2022-08-04T13:01:28;2.10;;;1.67;;
70367;SDS011;57789;53.868;10.728;2022-08-04T13:03:56;1.67;;;1.40;;
70367;SDS011;57789;53.868;10.728;2022-08-04T13:06:34;6.65;;;1.65;;
70367;SDS011;57789;53.868;10.728;2022-08-04T13:09:03;5.25;;;2.25;;
70367;SDS011;57789;53.868;10.728;2022-08-04T13:11:33;3.22;;;1.65;;
70367;SDS011;57789;53.868;10.728;2022-08-04T13:14:03;5.30;;;1.73;;
70367;SDS011;57789;53.868;10.728;2022-08-04T13:16:31;5.60;;;1.63;;
70367;SDS011;57789;53.868;10.728;2022-08-04T13:18:58;3.42;;;1.67;;
70367;SDS011;57789;53.868;10.728;2022-08-04T13:21:25;3.28;;;1.98;;
70367;SDS011;57789;53.868;10.728;2022-08-04T13:24:12;5.95;;;1.40;;
70367;SDS011;57789;53.868;10.728;2022-08-04T13:26:53;1.58;;;1.33;;
70367;SDS011;57789;53.868;10.728;2022-08-04T13:29:39;4.45;;;2.00;;
70367;SDS011;57789;53.868;10.728;2022-08-04T13:32:07;4.18;;;2.38;;
70367;SDS011;57789;53.868;10.728;2022-08-04T13:34:34;8.35;;;1.80;;
70367;SDS011;57789;53.868;10.728;2022-08-04T13:37:01;6.13;;;1.88;;
70367;SDS011;57789;53.868;10.728;2022-08-04T13:39:28;4.90;;;2.70;;
70367;SDS011;57789;53.868;10.728;2022-08-04T13:41:55;6.15;;;1.90;;
70367;SDS011;57789;53.868;10.728;2022-08-04T13:44:25;8.30;;;2.45;;
70367;SDS011;57789;53.868;10.728;2022-08-04T13:47:06;3.60;;;2.17;;
70367;SDS011;57789;53.868;10.728;2022-08-04T13:49:34;2.78;;;1.90;;
70367;SDS011;57789;53.868;10.728;2022-08-04T13:52:03;2.33;;;1.88;;
70367;SDS011;57789;53.868;10.728;2022-08-04T13:57:09;3.90;;;2.25;;
70367;SDS011;57789;53.868;10.728;2022-08-04T13:59:39;2.63;;;2.00;;
70367;SDS011;57789;53.868;10.728;2022-08-04T14:03:13;16.33;;;2.67;;
70367;SDS011;57789;53.868;10.728;2022-08-04T14:05:13;6.63;;;2.40;;
70367;SDS011;57789;53.868;10.728;2022-08-04T14:07:46;3.53;;;2.05;;
70367;SDS011;57789;53.868;10.728;2022-08-04T14:10:18;3.33;;;2.00;;
70367;SDS011;57789;53.868;10.728;2022-08-04T14:12:48;2.33;;;1.73;;
70367;SDS011;57789;53.868;10.728;2022-08-04T14:18:23;2.70;;;1.75;;
70367;SDS011;57789;53.868;10.728;2022-08-04T14:21:04;2.88;;;1.85;;
70367;SDS011;57789;53.868;10.728;2022-08-04T14:26:15;2.92;;;1.80;;
70367;SDS011;57789;53.868;10.728;2022-08-04T14:28:44;7.28;;;1.90;;
70367;SDS011;57789;53.868;10.728;2022-08-04T14:33:40;2.30;;;2.05;;
70367;SDS011;57789;53.868;10.728;2022-08-04T14:36:07;2.58;;;2.30;;
70367;SDS011;57789;53.868;10.728;2022-08-04T14:41:45;2.40;;;1.60;;
70367;SDS011;57789;53.868;10.728;2022-08-04T14:44:12;4.22;;;1.70;;
70367;SDS011;57789;53.868;10.728;2022-08-04T14:46:51;8.52;;;1.70;;
70367;SDS011;57789;53.868;10.728;2022-08-04T14:49:17;2.90;;;1.60;;
70367;SDS011;57789;53.868;10.728;2022-08-04T14:51:44;4.72;;;1.88;;
70367;SDS011;57789;53.868;10.728;2022-08-04T14:54:15;6.93;;;1.52;;
70367;SDS011;57789;53.868;10.728;2022-08-04T14:56:53;4.35;;;1.30;;
70367;SDS011;57789;53.868;10.728;2022-08-04T14:59:20;1.42;;;1.33;;
70367;SDS011;57789;53.868;10.728;2022-08-04T15:01:46;5.63;;;3.00;;
70367;SDS011;57789;53.868;10.728;2022-08-04T15:04:13;9.50;;;2.33;;
70367;SDS011;57789;53.868;10.728;2022-08-04T15:06:39;5.95;;;1.85;;
70367;SDS011;57789;53.868;10.728;2022-08-04T15:09:06;2.17;;;1.80;;
70367;SDS011;57789;53.868;10.728;2022-08-04T15:11:38;7.28;;;2.85;;
70367;SDS011;57789;53.868;10.728;2022-08-04T15:14:04;2.45;;;1.45;;
70367;SDS011;57789;53.868;10.728;2022-08-04T15:16:30;4.95;;;2.53;;
70367;SDS011;57789;53.868;10.728;2022-08-04T15:18:57;5.85;;;2.83;;
70367;SDS011;57789;53.868;10.728;2022-08-04T15:21:24;2.30;;;1.67;;
70367;SDS011;57789;53.868;10.728;2022-08-04T15:23:53;2.22;;;1.60;;
70367;SDS011;57789;53.868;10.728;2022-08-04T15:26:40;1.67;;;1.58;;
70367;SDS011;57789;53.868;10.728;2022-08-04T15:29:15;4.00;;;2.33;;
70367;SDS011;57789;53.868;10.728;2022-08-04T15:31:44;6.80;;;5.38;;
70367;SDS011;57789;53.868;10.728;2022-08-04T15:34:11;5.13;;;1.67;;
70367;SDS011;57789;53.868;10.728;2022-08-04T15:36:43;4.68;;;2.10;;
70367;SDS011;57789;53.868;10.728;2022-08-04T15:39:17;8.05;;;2.35;;
70367;SDS011;57789;53.868;10.728;2022-08-04T15:42:08;1.58;;;1.30;;
70367;SDS011;57789;53.868;10.728;2022-08-04T15:47:28;6.83;;;2.73;;
70367;SDS011;57789;53.868;10.728;2022-08-04T15:55:36;3.63;;;1.77;;
70367;SDS011;57789;53.868;10.728;2022-08-04T16:08:39;7.33;;;2.30;;
70367;SDS011;57789;53.868;10.728;2022-08-04T16:16:44;4.33;;;2.10;;
70367;SDS011;57789;53.868;10.728;2022-08-04T16:25:23;2.30;;;2.10;;
70367;SDS011;57789;53.868;10.728;2022-08-04T16:28:06;3.40;;;2.40;;
70367;SDS011;57789;53.868;10.728;2022-08-04T16:30:38;6.47;;;2.70;;
70367;SDS011;57789;53.868;10.728;2022-08-04T16:33:07;8.47;;;5.00;;
70367;SDS011;57789;53.868;10.728;2022-08-04T16:35:33;8.90;;;2.93;;
70367;SDS011;57789;53.868;10.728;2022-08-04T16:38:11;6.27;;;3.20;;
70367;SDS011;57789;53.868;10.728;2022-08-04T16:40:39;7.10;;;3.30;;
70367;SDS011;57789;53.868;10.728;2022-08-04T16:43:12;6.40;;;2.73;;
70367;SDS011;57789;53.868;10.728;2022-08-04T16:45:44;24.97;;;4.37;;
70367;SDS011;57789;53.868;10.728;2022-08-04T16:53:36;16.43;;;4.80;;
70367;SDS011;57789;53.868;10.728;2022-08-04T16:56:04;16.00;;;4.50;;
70367;SDS011;57789;53.868;10.728;2022-08-04T16:58:31;11.50;;;3.67;;
70367;SDS011;57789;53.868;10.728;2022-08-04T17:01:06;8.60;;;3.30;;
70367;SDS011;57789;53.868;10.728;2022-08-04T17:03:33;14.07;;;3.30;;
70367;SDS011;57789;53.868;10.728;2022-08-04T17:06:06;9.60;;;2.23;;
70367;SDS011;57789;53.868;10.728;2022-08-04T17:08:42;3.90;;;2.33;;
70367;SDS011;57789;53.868;10.728;2022-08-04T17:11:08;6.33;;;2.60;;
70367;SDS011;57789;53.868;10.728;2022-08-04T17:13:39;7.50;;;2.60;;
70367;SDS011;57789;53.868;10.728;2022-08-04T17:16:07;10.30;;;2.50;;
70367;SDS011;57789;53.868;10.728;2022-08-04T17:18:40;11.63;;;3.20;;
70367;SDS011;57789;53.868;10.728;2022-08-04T17:21:09;8.37;;;4.80;;
70367;SDS011;57789;53.868;10.728;2022-08-04T17:23:40;10.60;;;4.20;;
70367;SDS011;57789;53.868;10.728;2022-08-04T17:26:13;7.57;;;2.90;;
70367;SDS011;57789;53.868;10.728;2022-08-04T17:28:41;12.93;;;9.27;;
70367;SDS011;57789;53.868;10.728;2022-08-04T17:31:09;46.87;;;32.13;;
70367;SDS011;57789;53.868;10.728;2022-08-04T17:33:38;4.70;;;2.57;;
70367;SDS011;57789;53.868;10.728;2022-08-04T17:36:08;12.50;;;7.00;;
70367;SDS011;57789;53.868;10.728;2022-08-04T17:41:13;8.23;;;4.23;;
70367;SDS011;57789;53.868;10.728;2022-08-04T17:43:50;13.20;;;8.67;;
70367;SDS011;57789;53.868;10.728;2022-08-04T17:48:54;14.13;;;7.93;;
70367;SDS011;57789;53.868;10.728;2022-08-04T17:51:37;9.13;;;4.90;;
70367;SDS011;57789;53.868;10.728;2022-08-04T17:54:29;5.90;;;4.17;;
70367;SDS011;57789;53.868;10.728;2022-08-04T17:56:57;17.80;;;11.27;;
70367;SDS011;57789;53.868;10.728;2022-08-04T17:59:44;12.67;;;8.70;;
70367;SDS011;57789;53.868;10.728;2022-08-04T18:02:12;9.03;;;5.00;;
70367;SDS011;57789;53.868;10.728;2022-08-04T18:07:14;10.37;;;4.07;;
70367;SDS011;57789;53.868;10.728;2022-08-04T18:12:25;12.30;;;4.50;;
70367;SDS011;57789;53.868;10.728;2022-08-04T18:14:59;20.73;;;10.90;;
70367;SDS011;57789;53.868;10.728;2022-08-04T18:20:14;26.40;;;20.27;;
70367;SDS011;57789;53.868;10.728;2022-08-04T18:22:43;13.90;;;8.07;;
70367;SDS011;57789;53.868;10.728;2022-08-04T18:25:12;10.70;;;6.53;;
70367;SDS011;57789;53.868;10.728;2022-08-04T18:27:46;16.10;;;11.23;;
70367;SDS011;57789;53.868;10.728;2022-08-04T18:30:13;11.47;;;5.77;;
70367;SDS011;57789;53.868;10.728;2022-08-04T18:32:40;73.30;;;11.57;;
70367;SDS011;57789;53.868;10.728;2022-08-04T18:35:06;24.50;;;13.10;;
70367;SDS011;57789;53.868;10.728;2022-08-04T18:37:32;15.93;;;9.73;;
70367;SDS011;57789;53.868;10.728;2022-08-04T18:40:00;22.73;;;15.00;;
70367;SDS011;57789;53.868;10.728;2022-08-04T18:42:26;14.50;;;8.37;;
70367;SDS011;57789;53.868;10.728;2022-08-04T18:44:51;14.80;;;9.00;;
70367;SDS011;57789;53.868;10.728;2022-08-04T18:47:20;13.17;;;7.67;;
70367;SDS011;57789;53.868;10.728;2022-08-04T18:49:49;19.60;;;10.60;;
70367;SDS011;57789;53.868;10.728;2022-08-04T18:52:15;19.30;;;6.07;;
70367;SDS011;57789;53.868;10.728;2022-08-04T18:54:41;15.13;;;8.43;;
70367;SDS011;57789;53.868;10.728;2022-08-04T18:57:06;15.80;;;9.47;;
70367;SDS011;57789;53.868;10.728;2022-08-04T18:59:32;14.50;;;7.77;;
70367;SDS011;57789;53.868;10.728;2022-08-04T19:01:57;11.40;;;6.30;;
70367;SDS011;57789;53.868;10.728;2022-08-04T19:04:23;7.87;;;5.50;;
70367;SDS011;57789;53.868;10.728;2022-08-04T19:06:49;23.33;;;15.50;;
70367;SDS011;57789;53.868;10.728;2022-08-04T19:09:14;9.30;;;6.03;;
70367;SDS011;57789;53.868;10.728;2022-08-04T19:11:40;10.90;;;6.20;;
70367;SDS011;57789;53.868;10.728;2022-08-04T19:14:06;17.63;;;8.37;;
70367;SDS011;57789;53.868;10.728;2022-08-04T19:16:32;10.30;;;6.40;;
70367;SDS011;57789;53.868;10.728;2022-08-04T19:18:59;59.43;;;37.37;;
70367;SDS011;57789;53.868;10.728;2022-08-04T19:21:28;44.13;;;28.60;;
70367;SDS011;57789;53.868;10.728;2022-08-04T19:23:54;28.63;;;16.73;;
70367;SDS011;57789;53.868;10.728;2022-08-04T19:26:20;43.37;;;24.60;;
70367;SDS011;57789;53.868;10.728;2022-08-04T19:28:47;34.90;;;23.33;;
70367;SDS011;57789;53.868;10.728;2022-08-04T19:31:13;14.80;;;7.33;;
70367;SDS011;57789;53.868;10.728;2022-08-04T19:33:39;15.53;;;8.80;;
70367;SDS011;57789;53.868;10.728;2022-08-04T19:36:06;8.50;;;5.40;;
70367;SDS011;57789;53.868;10.728;2022-08-04T19:38:32;8.63;;;4.80;;
70367;SDS011;57789;53.868;10.728;2022-08-04T19:40:58;10.97;;;6.60;;
70367;SDS011;57789;53.868;10.728;2022-08-04T19:43:24;11.07;;;5.60;;
70367;SDS011;57789;53.868;10.728;2022-08-04T19:45:50;11.97;;;6.27;;
70367;SDS011;57789;53.868;10.728;2022-08-04T19:48:16;14.40;;;7.73;;
70367;SDS011;57789;53.868;10.728;2022-08-04T19:50:41;11.43;;;7.07;;
70367;SDS011;57789;53.868;10.728;2022-08-04T19:53:07;12.67;;;5.87;;
70367;SDS011;57789;53.868;10.728;2022-08-04T19:55:33;10.23;;;6.27;;
70367;SDS011;57789;53.868;10.728;2022-08-04T19:58:01;14.13;;;5.93;;
70367;SDS011;57789;53.868;10.728;2022-08-04T20:00:28;16.80;;;6.67;;
70367;SDS011;57789;53.868;10.728;2022-08-04T20:02:54;7.40;;;5.40;;
70367;SDS011;57789;53.868;10.728;2022-08-04T20:05:20;14.90;;;8.17;;
70367;SDS011;57789;53.868;10.728;2022-08-04T20:07:46;11.73;;;6.70;;
70367;SDS011;57789;53.868;10.728;2022-08-04T20:10:12;15.43;;;6.70;;
70367;SDS011;57789;53.868;10.728;2022-08-04T20:12:38;9.60;;;6.20;;
70367;SDS011;57789;53.868;10.728;2022-08-04T20:15:04;10.67;;;5.90;;
70367;SDS011;57789;53.868;10.728;2022-08-04T20:17:31;12.70;;;6.30;;